sensor_id;sensor_type;location;lat;lon;timestamp;P1;P2;P0
12246;PMS7003;6186;52.022;4.692;2023-09-08T00:01:47;7.75;6.50;4.00
12246;PMS7003;6186;52.022;4.692;2023-09-08T00:04:12;8.25;7.00;4.00
12246;PMS7003;6186;52.022;4.692;2023-09-08T00:06:37;8.50;8.00;5.25
12246;PMS7003;6186;52.022;4.692;2023-09-08T00:09:03;9.00;9.00;5.00
12246;PMS7003;6186;52.022;4.692;2023-09-08T00:11:28;9.00;8.50;5.00
12246;PMS7003;6186;52.022;4.692;2023-09-08T00:13:53;8.25;7.75;5.00
12246;PMS7003;6186;52.022;4.692;2023-09-08T00:16:19;7.75;7.00;5.00
12246;PMS7003;6186;52.022;4.692;2023-09-08T00:18:44;7.00;7.00;5.00
12246;PMS7003;6186;52.022;4.692;2023-09-08T00:21:09;7.50;7.50;5.50
12246;PMS7003;6186;52.022;4.692;2023-09-08T00:23:34;7.00;7.00;5.00
12246;PMS7003;6186;52.022;4.692;2023-09-08T00:25:59;8.00;8.00;5.25
12246;PMS7003;6186;52.022;4.692;2023-09-08T00:28:25;7.25;7.00;4.00
12246;PMS7003;6186;52.022;4.692;2023-09-08T00:30:50;8.00;7.00;5.00
12246;PMS7003;6186;52.022;4.692;2023-09-08T00:33:15;9.25;8.50;5.00
12246;PMS7003;6186;52.022;4.692;2023-09-08T00:35:44;6.40;6.40;4.00
12246;PMS7003;6186;52.022;4.692;2023-09-08T00:38:09;6.60;6.60;4.00
12246;PMS7003;6186;52.022;4.692;2023-09-08T00:40:34;8.00;8.00;5.00
12246;PMS7003;6186;52.022;4.692;2023-09-08T00:42:59;7.25;7.25;5.00
12246;PMS7003;6186;52.022;4.692;2023-09-08T00:45:26;8.00;8.00;4.75
12246;PMS7003;6186;52.022;4.692;2023-09-08T00:47:54;6.60;6.20;4.00
12246;PMS7003;6186;52.022;4.692;2023-09-08T00:50:19;6.75;6.75;4.50
12246;PMS7003;6186;52.022;4.692;2023-09-08T00:52:45;8.75;7.75;4.75
12246;PMS7003;6186;52.022;4.692;2023-09-08T00:55:10;6.75;6.75;4.00
12246;PMS7003;6186;52.022;4.692;2023-09-08T00:57:35;10.00;8.75;5.00
12246;PMS7003;6186;52.022;4.692;2023-09-08T01:00:01;8.50;8.00;5.00
12246;PMS7003;6186;52.022;4.692;2023-09-08T01:02:26;8.40;7.60;5.00
12246;PMS7003;6186;52.022;4.692;2023-09-08T01:04:52;7.25;7.00;5.00
12246;PMS7003;6186;52.022;4.692;2023-09-08T01:07:17;7.25;7.00;4.00
12246;PMS7003;6186;52.022;4.692;2023-09-08T01:09:45;9.00;8.20;5.00
12246;PMS7003;6186;52.022;4.692;2023-09-08T01:12:11;8.00;8.00;5.40
12246;PMS7003;6186;52.022;4.692;2023-09-08T01:14:36;9.50;8.25;5.00
12246;PMS7003;6186;52.022;4.692;2023-09-08T01:17:01;6.75;6.75;4.25
12246;PMS7003;6186;52.022;4.692;2023-09-08T01:19:26;8.00;7.00;4.75
12246;PMS7003;6186;52.022;4.692;2023-09-08T01:27:25;9.00;8.00;4.60
12246;PMS7003;6186;52.022;4.692;2023-09-08T01:29:54;6.80;6.40;4.00
12246;PMS7003;6186;52.022;4.692;2023-09-08T01:32:20;11.80;9.40;5.20
12246;PMS7003;6186;52.022;4.692;2023-09-08T01:34:45;8.25;8.25;5.25
12246;PMS7003;6186;52.022;4.692;2023-09-08T01:37:11;8.00;7.25;4.75
12246;PMS7003;6186;52.022;4.692;2023-09-08T01:39:36;8.00;8.00;5.50
12246;PMS7003;6186;52.022;4.692;2023-09-08T01:42:01;9.00;8.25;5.00
12246;PMS7003;6186;52.022;4.692;2023-09-08T01:44:26;11.00;9.50;5.00
12246;PMS7003;6186;52.022;4.692;2023-09-08T01:46:52;9.00;8.50;5.00
12246;PMS7003;6186;52.022;4.692;2023-09-08T01:49:17;7.25;7.00;4.00
12246;PMS7003;6186;52.022;4.692;2023-09-08T01:51:42;8.75;8.75;5.00
12246;PMS7003;6186;52.022;4.692;2023-09-08T01:54:08;9.40;8.20;5.20
12246;PMS7003;6186;52.022;4.692;2023-09-08T01:56:33;8.25;7.25;4.50
12246;PMS7003;6186;52.022;4.692;2023-09-08T01:58:58;9.75;9.00;5.50
12246;PMS7003;6186;52.022;4.692;2023-09-08T02:01:24;11.75;11.00;7.00
12246;PMS7003;6186;52.022;4.692;2023-09-08T02:03:49;8.25;8.00;4.25
12246;PMS7003;6186;52.022;4.692;2023-09-08T02:06:14;8.25;8.25;5.00
12246;PMS7003;6186;52.022;4.692;2023-09-08T02:08:39;9.00;8.50;5.25
12246;PMS7003;6186;52.022;4.692;2023-09-08T02:11:04;7.00;6.75;4.00
12246;PMS7003;6186;52.022;4.692;2023-09-08T02:13:30;9.00;7.00;4.25
12246;PMS7003;6186;52.022;4.692;2023-09-08T02:15:55;9.00;7.75;5.00
12246;PMS7003;6186;52.022;4.692;2023-09-08T02:18:20;9.75;8.00;4.25
12246;PMS7003;6186;52.022;4.692;2023-09-08T02:20:45;8.25;7.50;4.25
12246;PMS7003;6186;52.022;4.692;2023-09-08T02:23:10;9.75;7.50;4.25
12246;PMS7003;6186;52.022;4.692;2023-09-08T02:25:36;9.00;9.00;5.75
12246;PMS7003;6186;52.022;4.692;2023-09-08T02:28:01;9.50;8.25;4.50
12246;PMS7003;6186;52.022;4.692;2023-09-08T02:30:26;10.00;9.00;5.25
12246;PMS7003;6186;52.022;4.692;2023-09-08T02:32:51;10.50;8.50;5.50
12246;PMS7003;6186;52.022;4.692;2023-09-08T02:35:16;9.75;8.50;4.25
12246;PMS7003;6186;52.022;4.692;2023-09-08T02:37:42;9.00;9.00;5.50
12246;PMS7003;6186;52.022;4.692;2023-09-08T02:40:07;10.00;9.75;6.00
12246;PMS7003;6186;52.022;4.692;2023-09-08T02:42:32;9.25;8.50;5.00
12246;PMS7003;6186;52.022;4.692;2023-09-08T02:44:58;8.75;8.25;5.00
12246;PMS7003;6186;52.022;4.692;2023-09-08T02:47:23;10.00;9.25;5.00
12246;PMS7003;6186;52.022;4.692;2023-09-08T02:49:48;8.25;8.00;5.00
12246;PMS7003;6186;52.022;4.692;2023-09-08T02:52:13;8.75;7.25;5.00
12246;PMS7003;6186;52.022;4.692;2023-09-08T02:54:39;10.25;9.00;5.25
12246;PMS7003;6186;52.022;4.692;2023-09-08T02:57:04;9.00;8.00;6.00
12246;PMS7003;6186;52.022;4.692;2023-09-08T02:59:29;9.00;9.00;6.00
12246;PMS7003;6186;52.022;4.692;2023-09-08T03:01:54;10.00;10.00;7.00
12246;PMS7003;6186;52.022;4.692;2023-09-08T03:04:19;8.25;8.25;6.00
12246;PMS7003;6186;52.022;4.692;2023-09-08T03:06:45;9.00;9.00;7.00
12246;PMS7003;6186;52.022;4.692;2023-09-08T03:09:10;9.00;9.00;6.00
12246;PMS7003;6186;52.022;4.692;2023-09-08T03:11:35;9.75;9.50;5.75
12246;PMS7003;6186;52.022;4.692;2023-09-08T03:14:00;10.00;9.00;6.00
12246;PMS7003;6186;52.022;4.692;2023-09-08T03:16:25;9.00;8.00;4.50
12246;PMS7003;6186;52.022;4.692;2023-09-08T03:18:51;9.50;9.00;6.50
12246;PMS7003;6186;52.022;4.692;2023-09-08T03:21:16;7.50;7.50;4.25
12246;PMS7003;6186;52.022;4.692;2023-09-08T03:23:42;9.50;8.50;6.00
12246;PMS7003;6186;52.022;4.692;2023-09-08T03:26:08;10.00;8.80;5.00
12246;PMS7003;6186;52.022;4.692;2023-09-08T03:28:34;9.00;9.00;6.00
12246;PMS7003;6186;52.022;4.692;2023-09-08T03:31:01;10.00;9.00;5.80
12246;PMS7003;6186;52.022;4.692;2023-09-08T03:33:29;10.40;9.80;6.00
12246;PMS7003;6186;52.022;4.692;2023-09-08T03:35:54;11.75;10.25;6.00
12246;PMS7003;6186;52.022;4.692;2023-09-08T03:38:19;10.00;8.75;5.75
12246;PMS7003;6186;52.022;4.692;2023-09-08T03:40:45;9.00;9.00;5.00
12246;PMS7003;6186;52.022;4.692;2023-09-08T03:43:11;10.40;9.60;6.20
12246;PMS7003;6186;52.022;4.692;2023-09-08T03:45:36;9.25;8.00;6.00
12246;PMS7003;6186;52.022;4.692;2023-09-08T03:48:02;10.00;9.25;5.75
12246;PMS7003;6186;52.022;4.692;2023-09-08T03:50:27;8.50;8.50;5.75
12246;PMS7003;6186;52.022;4.692;2023-09-08T03:52:52;10.00;8.75;6.00
12246;PMS7003;6186;52.022;4.692;2023-09-08T03:55:17;9.25;9.00;6.00
12246;PMS7003;6186;52.022;4.692;2023-09-08T03:57:43;9.00;9.00;5.00
12246;PMS7003;6186;52.022;4.692;2023-09-08T04:00:08;11.25;9.50;6.00
12246;PMS7003;6186;52.022;4.692;2023-09-08T04:02:34;9.80;9.20;6.00
12246;PMS7003;6186;52.022;4.692;2023-09-08T04:04:59;10.00;9.00;5.00
12246;PMS7003;6186;52.022;4.692;2023-09-08T04:07:24;8.75;8.50;5.75
12246;PMS7003;6186;52.022;4.692;2023-09-08T04:09:49;9.00;8.00;5.00
12246;PMS7003;6186;52.022;4.692;2023-09-08T04:12:14;10.25;8.50;5.00
12246;PMS7003;6186;52.022;4.692;2023-09-08T04:14:40;8.00;7.75;5.25
12246;PMS7003;6186;52.022;4.692;2023-09-08T04:17:05;9.00;8.50;5.75
12246;PMS7003;6186;52.022;4.692;2023-09-08T04:19:30;11.00;9.75;6.00
12246;PMS7003;6186;52.022;4.692;2023-09-08T04:21:55;11.00;10.00;7.00
12246;PMS7003;6186;52.022;4.692;2023-09-08T04:24:20;10.00;9.50;6.00
12246;PMS7003;6186;52.022;4.692;2023-09-08T04:26:46;9.25;9.00;6.00
12246;PMS7003;6186;52.022;4.692;2023-09-08T04:29:11;11.00;9.00;5.00
12246;PMS7003;6186;52.022;4.692;2023-09-08T04:31:36;10.00;9.00;6.00
12246;PMS7003;6186;52.022;4.692;2023-09-08T04:34:01;8.00;8.00;5.00
12246;PMS7003;6186;52.022;4.692;2023-09-08T04:36:27;11.00;10.00;5.50
12246;PMS7003;6186;52.022;4.692;2023-09-08T04:38:52;9.00;8.25;5.75
12246;PMS7003;6186;52.022;4.692;2023-09-08T04:41:17;9.50;8.75;5.75
12246;PMS7003;6186;52.022;4.692;2023-09-08T04:43:42;9.75;8.00;5.00
12246;PMS7003;6186;52.022;4.692;2023-09-08T04:46:07;9.00;8.00;6.00
12246;PMS7003;6186;52.022;4.692;2023-09-08T04:48:33;10.00;9.25;7.00
12246;PMS7003;6186;52.022;4.692;2023-09-08T04:50:58;8.50;8.00;5.00
12246;PMS7003;6186;52.022;4.692;2023-09-08T04:53:23;9.00;9.00;5.50
12246;PMS7003;6186;52.022;4.692;2023-09-08T04:55:48;9.00;9.00;5.75
12246;PMS7003;6186;52.022;4.692;2023-09-08T04:58:13;9.50;8.25;5.00
12246;PMS7003;6186;52.022;4.692;2023-09-08T05:00:39;8.25;7.25;5.00
12246;PMS7003;6186;52.022;4.692;2023-09-08T05:03:04;8.75;8.25;5.00
12246;PMS7003;6186;52.022;4.692;2023-09-08T05:05:29;8.25;7.50;5.00
12246;PMS7003;6186;52.022;4.692;2023-09-08T05:07:54;10.00;9.25;6.00
12246;PMS7003;6186;52.022;4.692;2023-09-08T05:10:20;10.00;9.00;5.25
12246;PMS7003;6186;52.022;4.692;2023-09-08T05:12:45;11.00;10.00;6.00
12246;PMS7003;6186;52.022;4.692;2023-09-08T05:15:10;9.50;8.00;5.25
12246;PMS7003;6186;52.022;4.692;2023-09-08T05:17:35;9.75;9.75;5.75
12246;PMS7003;6186;52.022;4.692;2023-09-08T05:20:01;11.00;9.75;6.00
12246;PMS7003;6186;52.022;4.692;2023-09-08T05:22:27;10.00;9.60;6.00
12246;PMS7003;6186;52.022;4.692;2023-09-08T05:24:52;8.00;8.00;5.25
12246;PMS7003;6186;52.022;4.692;2023-09-08T05:27:17;9.00;8.00;5.25
12246;PMS7003;6186;52.022;4.692;2023-09-08T05:29:42;9.50;9.00;6.00
12246;PMS7003;6186;52.022;4.692;2023-09-08T05:32:08;8.50;8.25;5.50
12246;PMS7003;6186;52.022;4.692;2023-09-08T05:34:33;10.00;9.00;5.50
12246;PMS7003;6186;52.022;4.692;2023-09-08T05:36:58;10.00;9.75;7.00
12246;PMS7003;6186;52.022;4.692;2023-09-08T05:39:23;10.00;9.00;6.00
12246;PMS7003;6186;52.022;4.692;2023-09-08T05:41:49;12.00;9.25;5.50
12246;PMS7003;6186;52.022;4.692;2023-09-08T05:44:14;9.00;9.00;6.00
12246;PMS7003;6186;52.022;4.692;2023-09-08T05:46:39;8.00;8.00;5.00
12246;PMS7003;6186;52.022;4.692;2023-09-08T05:49:04;9.25;8.75;5.75
12246;PMS7003;6186;52.022;4.692;2023-09-08T05:51:30;9.50;9.00;6.00
12246;PMS7003;6186;52.022;4.692;2023-09-08T05:53:56;8.80;8.20;5.00
12246;PMS7003;6186;52.022;4.692;2023-09-08T05:56:24;12.00;11.00;7.00
12246;PMS7003;6186;52.022;4.692;2023-09-08T05:58:51;11.40;9.00;6.00
12246;PMS7003;6186;52.022;4.692;2023-09-08T06:01:16;12.00;10.50;6.75
12246;PMS7003;6186;52.022;4.692;2023-09-08T06:03:41;9.00;8.75;5.50
12246;PMS7003;6186;52.022;4.692;2023-09-08T06:06:06;11.75;9.75;6.00
12246;PMS7003;6186;52.022;4.692;2023-09-08T06:08:32;8.50;8.50;5.75
12246;PMS7003;6186;52.022;4.692;2023-09-08T06:10:57;10.00;8.75;5.00
12246;PMS7003;6186;52.022;4.692;2023-09-08T06:13:22;10.75;10.00;6.00
12246;PMS7003;6186;52.022;4.692;2023-09-08T06:15:47;8.00;8.00;5.00
12246;PMS7003;6186;52.022;4.692;2023-09-08T06:18:13;8.25;7.25;5.00
12246;PMS7003;6186;52.022;4.692;2023-09-08T06:20:43;9.00;8.25;4.25
12246;PMS7003;6186;52.022;4.692;2023-09-08T06:23:11;11.20;10.80;4.40
12246;PMS7003;6186;52.022;4.692;2023-09-08T06:25:37;10.50;9.50;5.00
12246;PMS7003;6186;52.022;4.692;2023-09-08T06:28:02;8.25;8.00;4.25
12246;PMS7003;6186;52.022;4.692;2023-09-08T06:30:27;9.00;8.25;4.75
12246;PMS7003;6186;52.022;4.692;2023-09-08T06:32:53;7.00;7.00;3.75
12246;PMS7003;6186;52.022;4.692;2023-09-08T06:35:18;10.00;8.50;5.25
12246;PMS7003;6186;52.022;4.692;2023-09-08T06:37:43;10.50;9.00;6.00
12246;PMS7003;6186;52.022;4.692;2023-09-08T06:40:08;8.25;7.75;4.25
12246;PMS7003;6186;52.022;4.692;2023-09-08T06:42:33;10.25;9.50;6.25
12246;PMS7003;6186;52.022;4.692;2023-09-08T06:44:59;10.00;9.00;5.25
12246;PMS7003;6186;52.022;4.692;2023-09-08T06:47:24;10.25;10.25;5.50
12246;PMS7003;6186;52.022;4.692;2023-09-08T06:49:49;9.75;9.50;5.25
12246;PMS7003;6186;52.022;4.692;2023-09-08T06:52:15;10.75;10.50;6.50
12246;PMS7003;6186;52.022;4.692;2023-09-08T06:54:41;9.20;8.00;5.00
12246;PMS7003;6186;52.022;4.692;2023-09-08T06:57:06;12.75;11.25;7.00
12246;PMS7003;6186;52.022;4.692;2023-09-08T06:59:31;14.25;12.00;8.00
12246;PMS7003;6186;52.022;4.692;2023-09-08T07:01:56;11.75;10.75;7.50
12246;PMS7003;6186;52.022;4.692;2023-09-08T07:04:22;11.00;10.25;6.75
12246;PMS7003;6186;52.022;4.692;2023-09-08T07:06:47;9.00;8.75;6.00
12246;PMS7003;6186;52.022;4.692;2023-09-08T07:09:12;11.25;10.50;5.25
12246;PMS7003;6186;52.022;4.692;2023-09-08T07:11:38;14.00;14.00;8.50
12246;PMS7003;6186;52.022;4.692;2023-09-08T07:14:03;10.50;10.25;6.25
12246;PMS7003;6186;52.022;4.692;2023-09-08T07:16:28;12.25;11.25;7.00
12246;PMS7003;6186;52.022;4.692;2023-09-08T07:18:54;12.25;10.50;6.25
12246;PMS7003;6186;52.022;4.692;2023-09-08T07:21:19;10.25;9.75;6.25
12246;PMS7003;6186;52.022;4.692;2023-09-08T07:23:44;7.75;7.25;4.50
12246;PMS7003;6186;52.022;4.692;2023-09-08T07:26:09;8.00;7.00;4.50
12246;PMS7003;6186;52.022;4.692;2023-09-08T07:28:35;9.75;9.50;5.00
12246;PMS7003;6186;52.022;4.692;2023-09-08T07:31:00;9.00;8.25;5.25
12246;PMS7003;6186;52.022;4.692;2023-09-08T07:33:26;8.40;8.00;5.00
12246;PMS7003;6186;52.022;4.692;2023-09-08T07:35:51;7.25;7.00;5.00
12246;PMS7003;6186;52.022;4.692;2023-09-08T07:38:17;9.75;9.50;6.25
12246;PMS7003;6186;52.022;4.692;2023-09-08T07:40:42;15.75;12.25;8.25
12246;PMS7003;6186;52.022;4.692;2023-09-08T07:43:07;13.75;12.00;7.25
12246;PMS7003;6186;52.022;4.692;2023-09-08T07:45:32;13.75;11.75;7.00
12246;PMS7003;6186;52.022;4.692;2023-09-08T07:47:57;9.00;9.00;5.50
12246;PMS7003;6186;52.022;4.692;2023-09-08T07:50:24;13.25;12.00;7.50
12246;PMS7003;6186;52.022;4.692;2023-09-08T07:52:50;10.00;9.00;6.40
12246;PMS7003;6186;52.022;4.692;2023-09-08T07:55:17;10.80;10.60;6.00
12246;PMS7003;6186;52.022;4.692;2023-09-08T07:57:43;13.00;12.00;7.40
12246;PMS7003;6186;52.022;4.692;2023-09-08T08:00:10;16.00;13.40;8.00
12246;PMS7003;6186;52.022;4.692;2023-09-08T08:02:36;9.00;8.75;6.00
12246;PMS7003;6186;52.022;4.692;2023-09-08T08:05:01;10.00;7.80;5.00
12246;PMS7003;6186;52.022;4.692;2023-09-08T08:07:27;10.50;9.75;6.00
12246;PMS7003;6186;52.022;4.692;2023-09-08T08:09:52;7.75;7.75;5.25
12246;PMS7003;6186;52.022;4.692;2023-09-08T08:12:17;13.50;12.50;7.00
12246;PMS7003;6186;52.022;4.692;2023-09-08T08:14:42;13.00;10.50;6.00
12246;PMS7003;6186;52.022;4.692;2023-09-08T08:17:07;11.00;9.50;6.00
12246;PMS7003;6186;52.022;4.692;2023-09-08T08:19:33;12.00;10.50;7.00
12246;PMS7003;6186;52.022;4.692;2023-09-08T08:21:58;10.50;9.25;5.25
12246;PMS7003;6186;52.022;4.692;2023-09-08T08:24:23;14.25;13.00;9.00
12246;PMS7003;6186;52.022;4.692;2023-09-08T08:26:48;12.75;11.50;6.50
12246;PMS7003;6186;52.022;4.692;2023-09-08T08:29:13;13.00;12.00;8.25
12246;PMS7003;6186;52.022;4.692;2023-09-08T08:31:39;12.50;11.75;7.25
12246;PMS7003;6186;52.022;4.692;2023-09-08T08:34:04;10.00;9.50;5.50
12246;PMS7003;6186;52.022;4.692;2023-09-08T08:36:29;8.25;7.00;5.00
12246;PMS7003;6186;52.022;4.692;2023-09-08T08:38:54;8.75;8.25;5.00
12246;PMS7003;6186;52.022;4.692;2023-09-08T08:41:19;12.50;10.75;6.00
12246;PMS7003;6186;52.022;4.692;2023-09-08T08:43:45;8.00;8.00;5.50
12246;PMS7003;6186;52.022;4.692;2023-09-08T08:46:10;9.60;9.40;6.00
12246;PMS7003;6186;52.022;4.692;2023-09-08T08:48:37;9.40;9.00;6.00
12246;PMS7003;6186;52.022;4.692;2023-09-08T08:51:05;10.20;8.60;5.20
12246;PMS7003;6186;52.022;4.692;2023-09-08T08:53:30;9.75;8.25;5.50
12246;PMS7003;6186;52.022;4.692;2023-09-08T08:55:56;12.50;11.00;7.00
12246;PMS7003;6186;52.022;4.692;2023-09-08T08:58:24;11.60;11.20;8.00
12246;PMS7003;6186;52.022;4.692;2023-09-08T09:00:51;12.40;12.40;7.20
12246;PMS7003;6186;52.022;4.692;2023-09-08T09:03:18;14.40;12.00;8.00
12246;PMS7003;6186;52.022;4.692;2023-09-08T09:05:45;12.00;11.00;7.00
12246;PMS7003;6186;52.022;4.692;2023-09-08T09:08:10;13.00;11.75;6.50
12246;PMS7003;6186;52.022;4.692;2023-09-08T09:10:37;13.80;11.80;8.40
12246;PMS7003;6186;52.022;4.692;2023-09-08T09:13:02;11.75;11.00;7.25
12246;PMS7003;6186;52.022;4.692;2023-09-08T09:15:28;15.25;11.25;7.25
12246;PMS7003;6186;52.022;4.692;2023-09-08T09:18:01;12.80;12.60;8.40
12246;PMS7003;6186;52.022;4.692;2023-09-08T09:20:28;11.40;10.40;6.40
12246;PMS7003;6186;52.022;4.692;2023-09-08T09:22:53;12.25;11.25;7.25
12246;PMS7003;6186;52.022;4.692;2023-09-08T09:25:22;11.00;10.75;6.25
12246;PMS7003;6186;52.022;4.692;2023-09-08T09:27:55;12.60;12.20;7.80
12246;PMS7003;6186;52.022;4.692;2023-09-08T09:30:22;13.00;11.40;7.40
12246;PMS7003;6186;52.022;4.692;2023-09-08T09:32:48;11.80;11.40;6.80
12246;PMS7003;6186;52.022;4.692;2023-09-08T09:35:24;12.00;11.40;7.40
12246;PMS7003;6186;52.022;4.692;2023-09-08T09:38:05;12.80;12.40;8.20
12246;PMS7003;6186;52.022;4.692;2023-09-08T09:40:30;12.50;12.00;7.00
12246;PMS7003;6186;52.022;4.692;2023-09-08T09:42:55;14.25;14.25;8.75
12246;PMS7003;6186;52.022;4.692;2023-09-08T09:45:20;11.75;10.75;6.00
12246;PMS7003;6186;52.022;4.692;2023-09-08T09:47:50;12.20;11.20;7.40
12246;PMS7003;6186;52.022;4.692;2023-09-08T09:50:26;10.80;10.40;6.40
12246;PMS7003;6186;52.022;4.692;2023-09-08T09:52:54;10.40;10.40;7.00
12246;PMS7003;6186;52.022;4.692;2023-09-08T09:55:22;12.80;11.60;7.20
12246;PMS7003;6186;52.022;4.692;2023-09-08T09:57:48;11.80;10.60;6.40
12246;PMS7003;6186;52.022;4.692;2023-09-08T10:00:14;10.60;10.40;7.20
12246;PMS7003;6186;52.022;4.692;2023-09-08T10:02:40;10.40;8.80;6.20
12246;PMS7003;6186;52.022;4.692;2023-09-08T10:05:13;10.20;9.60;6.00
12246;PMS7003;6186;52.022;4.692;2023-09-08T10:07:39;10.20;8.40;5.40
12246;PMS7003;6186;52.022;4.692;2023-09-08T10:10:05;8.40;7.60;4.80
12246;PMS7003;6186;52.022;4.692;2023-09-08T10:12:30;10.75;9.00;6.00
12246;PMS7003;6186;52.022;4.692;2023-09-08T10:14:58;11.60;9.80;6.60
12246;PMS7003;6186;52.022;4.692;2023-09-08T10:17:25;9.80;9.00;6.00
12246;PMS7003;6186;52.022;4.692;2023-09-08T10:19:55;8.80;8.80;5.40
12246;PMS7003;6186;52.022;4.692;2023-09-08T10:22:23;9.20;8.20;5.20
12246;PMS7003;6186;52.022;4.692;2023-09-08T10:24:54;7.40;7.40;5.00
12246;PMS7003;6186;52.022;4.692;2023-09-08T10:27:22;8.40;7.40;5.20
12246;PMS7003;6186;52.022;4.692;2023-09-08T10:29:48;8.20;8.20;5.20
12246;PMS7003;6186;52.022;4.692;2023-09-08T10:32:15;7.60;7.20;5.00
12246;PMS7003;6186;52.022;4.692;2023-09-08T10:34:41;9.60;9.00;6.00
12246;PMS7003;6186;52.022;4.692;2023-09-08T10:37:20;9.00;8.20;5.60
12246;PMS7003;6186;52.022;4.692;2023-09-08T10:39:50;8.80;7.60;5.20
12246;PMS7003;6186;52.022;4.692;2023-09-08T10:44:43;8.80;8.00;5.60
12246;PMS7003;6186;52.022;4.692;2023-09-08T10:47:09;9.20;8.80;5.80
12246;PMS7003;6186;52.022;4.692;2023-09-08T10:49:35;10.00;10.00;6.00
12246;PMS7003;6186;52.022;4.692;2023-09-08T10:52:11;8.20;8.20;5.20
12246;PMS7003;6186;52.022;4.692;2023-09-08T10:54:44;8.40;8.40;5.40
12246;PMS7003;6186;52.022;4.692;2023-09-08T10:57:15;8.60;7.80;5.00
12246;PMS7003;6186;52.022;4.692;2023-09-08T11:00:01;8.40;8.20;5.00
12246;PMS7003;6186;52.022;4.692;2023-09-08T11:02:38;10.80;9.60;7.00
12246;PMS7003;6186;52.022;4.692;2023-09-08T11:05:06;7.40;7.00;4.80
12246;PMS7003;6186;52.022;4.692;2023-09-08T11:07:33;8.20;7.20;5.00
12246;PMS7003;6186;52.022;4.692;2023-09-08T11:09:59;10.00;9.00;5.00
12246;PMS7003;6186;52.022;4.692;2023-09-08T11:12:27;9.40;9.00;6.20
12246;PMS7003;6186;52.022;4.692;2023-09-08T11:14:53;8.80;8.40;5.40
12246;PMS7003;6186;52.022;4.692;2023-09-08T11:17:18;11.00;7.75;4.50
12246;PMS7003;6186;52.022;4.692;2023-09-08T11:19:50;7.00;6.25;4.50
12246;PMS7003;6186;52.022;4.692;2023-09-08T11:22:15;8.60;7.80;4.60
12246;PMS7003;6186;52.022;4.692;2023-09-08T11:24:42;8.00;7.80;5.00
12246;PMS7003;6186;52.022;4.692;2023-09-08T11:27:08;8.20;8.20;5.40
12246;PMS7003;6186;52.022;4.692;2023-09-08T11:29:33;9.20;9.20;7.00
12246;PMS7003;6186;52.022;4.692;2023-09-08T11:31:59;8.75;8.75;5.75
12246;PMS7003;6186;52.022;4.692;2023-09-08T11:34:24;8.50;8.50;5.00
12246;PMS7003;6186;52.022;4.692;2023-09-08T11:36:49;8.00;7.50;5.50
12246;PMS7003;6186;52.022;4.692;2023-09-08T11:39:15;9.50;8.00;5.00
12246;PMS7003;6186;52.022;4.692;2023-09-08T11:41:40;6.75;6.25;4.50
12246;PMS7003;6186;52.022;4.692;2023-09-08T11:44:05;7.50;7.00;5.00
12246;PMS7003;6186;52.022;4.692;2023-09-08T11:46:30;7.25;7.25;5.00
12246;PMS7003;6186;52.022;4.692;2023-09-08T11:48:56;9.25;8.25;5.50
12246;PMS7003;6186;52.022;4.692;2023-09-08T11:51:25;10.50;8.00;5.00
12246;PMS7003;6186;52.022;4.692;2023-09-08T11:53:51;10.00;10.00;6.00
12246;PMS7003;6186;52.022;4.692;2023-09-08T11:56:17;8.40;8.40;6.00
12246;PMS7003;6186;52.022;4.692;2023-09-08T11:58:42;8.50;8.50;6.00
12246;PMS7003;6186;52.022;4.692;2023-09-08T12:01:08;8.50;8.25;6.00
12246;PMS7003;6186;52.022;4.692;2023-09-08T12:03:33;10.25;9.75;6.75
12246;PMS7003;6186;52.022;4.692;2023-09-08T12:05:58;9.50;9.00;6.00
12246;PMS7003;6186;52.022;4.692;2023-09-08T12:08:24;9.00;8.75;7.00
12246;PMS7003;6186;52.022;4.692;2023-09-08T12:10:53;9.40;9.00;5.80
12246;PMS7003;6186;52.022;4.692;2023-09-08T12:13:24;9.60;9.20;5.60
12246;PMS7003;6186;52.022;4.692;2023-09-08T12:15:50;8.20;8.20;5.40
12246;PMS7003;6186;52.022;4.692;2023-09-08T12:18:15;11.00;10.00;7.00
12246;PMS7003;6186;52.022;4.692;2023-09-08T12:20:40;9.00;8.75;6.25
12246;PMS7003;6186;52.022;4.692;2023-09-08T12:23:15;10.25;9.00;6.00
12246;PMS7003;6186;52.022;4.692;2023-09-08T12:25:49;9.00;8.00;6.40
12246;PMS7003;6186;52.022;4.692;2023-09-08T12:28:18;9.00;9.00;6.20
12246;PMS7003;6186;52.022;4.692;2023-09-08T12:30:44;7.60;7.60;5.40
12246;PMS7003;6186;52.022;4.692;2023-09-08T12:33:10;9.00;8.25;6.00
12246;PMS7003;6186;52.022;4.692;2023-09-08T12:35:35;8.00;8.00;6.00
12246;PMS7003;6186;52.022;4.692;2023-09-08T12:38:01;9.75;9.00;6.00
12246;PMS7003;6186;52.022;4.692;2023-09-08T12:40:33;8.80;8.40;6.20
12246;PMS7003;6186;52.022;4.692;2023-09-08T12:43:00;11.80;10.40;7.00
12246;PMS7003;6186;52.022;4.692;2023-09-08T12:45:26;8.75;8.50;5.75
12246;PMS7003;6186;52.022;4.692;2023-09-08T12:47:52;9.20;9.20;6.00
12246;PMS7003;6186;52.022;4.692;2023-09-08T12:50:17;9.50;9.50;6.00
12246;PMS7003;6186;52.022;4.692;2023-09-08T12:52:42;10.00;9.25;6.75
12246;PMS7003;6186;52.022;4.692;2023-09-08T12:55:08;10.00;9.75;7.00
12246;PMS7003;6186;52.022;4.692;2023-09-08T12:57:34;11.50;10.50;7.00
12246;PMS7003;6186;52.022;4.692;2023-09-08T13:00:00;10.00;9.80;6.60
12246;PMS7003;6186;52.022;4.692;2023-09-08T13:02:25;11.75;11.00;6.75
12246;PMS7003;6186;52.022;4.692;2023-09-08T13:04:50;9.50;9.25;6.00
12246;PMS7003;6186;52.022;4.692;2023-09-08T13:07:16;10.00;8.50;5.50
12246;PMS7003;6186;52.022;4.692;2023-09-08T13:09:42;8.40;8.40;6.60
12246;PMS7003;6186;52.022;4.692;2023-09-08T13:12:07;10.25;10.00;6.00
12246;PMS7003;6186;52.022;4.692;2023-09-08T13:14:32;8.75;8.75;5.50
12246;PMS7003;6186;52.022;4.692;2023-09-08T13:16:58;9.00;9.00;6.00
12246;PMS7003;6186;52.022;4.692;2023-09-08T13:19:23;7.75;7.75;6.00
12246;PMS7003;6186;52.022;4.692;2023-09-08T13:21:48;9.75;9.75;6.75
12246;PMS7003;6186;52.022;4.692;2023-09-08T13:24:13;10.25;10.25;7.25
12246;PMS7003;6186;52.022;4.692;2023-09-08T13:26:38;10.25;9.75;7.25
12246;PMS7003;6186;52.022;4.692;2023-09-08T13:29:04;9.25;9.00;6.75
12246;PMS7003;6186;52.022;4.692;2023-09-08T13:31:29;9.25;9.00;5.75
12246;PMS7003;6186;52.022;4.692;2023-09-08T13:33:54;9.25;8.50;6.00
12246;PMS7003;6186;52.022;4.692;2023-09-08T13:36:19;8.00;7.75;5.00
12246;PMS7003;6186;52.022;4.692;2023-09-08T13:38:44;10.25;9.50;6.25
12246;PMS7003;6186;52.022;4.692;2023-09-08T13:41:10;9.00;9.00;6.00
12246;PMS7003;6186;52.022;4.692;2023-09-08T13:43:35;8.50;8.25;5.75
12246;PMS7003;6186;52.022;4.692;2023-09-08T13:46:00;8.00;8.00;4.50
12246;PMS7003;6186;52.022;4.692;2023-09-08T13:48:25;8.25;8.00;5.00
12246;PMS7003;6186;52.022;4.692;2023-09-08T13:50:50;7.25;7.25;4.75
12246;PMS7003;6186;52.022;4.692;2023-09-08T13:53:16;8.75;7.75;5.00
12246;PMS7003;6186;52.022;4.692;2023-09-08T13:55:41;9.25;8.50;5.25
12246;PMS7003;6186;52.022;4.692;2023-09-08T13:58:06;7.75;7.75;4.25
12246;PMS7003;6186;52.022;4.692;2023-09-08T14:00:31;9.00;8.00;5.25
12246;PMS7003;6186;52.022;4.692;2023-09-08T14:02:57;9.75;9.00;6.00
12246;PMS7003;6186;52.022;4.692;2023-09-08T14:05:22;8.00;8.00;6.00
12246;PMS7003;6186;52.022;4.692;2023-09-08T14:07:47;9.25;9.00;6.00
12246;PMS7003;6186;52.022;4.692;2023-09-08T14:10:12;7.00;7.00;4.00
12246;PMS7003;6186;52.022;4.692;2023-09-08T14:12:37;8.00;8.00;5.00
12246;PMS7003;6186;52.022;4.692;2023-09-08T14:15:03;7.50;6.75;4.00
12246;PMS7003;6186;52.022;4.692;2023-09-08T14:17:29;8.20;8.00;4.80
12246;PMS7003;6186;52.022;4.692;2023-09-08T14:19:54;8.00;8.00;5.25
12246;PMS7003;6186;52.022;4.692;2023-09-08T14:22:19;8.00;7.00;5.00
12246;PMS7003;6186;52.022;4.692;2023-09-08T14:24:45;6.75;6.00;3.75
12246;PMS7003;6186;52.022;4.692;2023-09-08T14:27:10;6.50;6.00;4.00
12246;PMS7003;6186;52.022;4.692;2023-09-08T14:29:35;7.50;7.00;4.00